sensor_id;sensor_type;location;lat;lon;timestamp;P1;durP1;ratioP1;P2;durP2;ratioP2
29002;SDS011;16102;57.138;-2.118;2022-07-29T00:01:01;2.42;;;1.52;;
29002;SDS011;16102;57.138;-2.118;2022-07-29T00:03:28;7.70;;;2.65;;
29002;SDS011;16102;57.138;-2.118;2022-07-29T00:05:56;7.07;;;2.55;;
29002;SDS011;16102;57.138;-2.118;2022-07-29T00:08:22;4.65;;;2.83;;
29002;SDS011;16102;57.138;-2.118;2022-07-29T00:10:50;4.80;;;2.05;;
29002;SDS011;16102;57.138;-2.118;2022-07-29T00:13:17;2.90;;;1.90;;
29002;SDS011;16102;57.138;-2.118;2022-07-29T00:15:58;9.57;;;4.70;;
29002;SDS011;16102;57.138;-2.118;2022-07-29T00:18:30;6.35;;;3.45;;
29002;SDS011;16102;57.138;-2.118;2022-07-29T00:20:58;7.03;;;4.15;;
29002;SDS011;16102;57.138;-2.118;2022-07-29T00:23:25;5.88;;;3.78;;
29002;SDS011;16102;57.138;-2.118;2022-07-29T00:25:52;9.38;;;6.85;;
29002;SDS011;16102;57.138;-2.118;2022-07-29T00:28:20;5.78;;;4.07;;
29002;SDS011;16102;57.138;-2.118;2022-07-29T00:30:47;4.60;;;2.88;;
29002;SDS011;16102;57.138;-2.118;2022-07-29T00:33:14;6.45;;;4.90;;
29002;SDS011;16102;57.138;-2.118;2022-07-29T00:35:41;3.97;;;3.40;;
29002;SDS011;16102;57.138;-2.118;2022-07-29T00:38:14;4.60;;;3.20;;
29002;SDS011;16102;57.138;-2.118;2022-07-29T00:40:43;2.92;;;2.10;;
29002;SDS011;16102;57.138;-2.118;2022-07-29T00:43:11;4.05;;;3.00;;
29002;SDS011;16102;57.138;-2.118;2022-07-29T00:45:40;3.78;;;2.30;;
29002;SDS011;16102;57.138;-2.118;2022-07-29T00:48:08;3.38;;;3.08;;
29002;SDS011;16102;57.138;-2.118;2022-07-29T00:50:36;4.13;;;3.03;;
29002;SDS011;16102;57.138;-2.118;2022-07-29T00:53:05;6.50;;;3.50;;
29002;SDS011;16102;57.138;-2.118;2022-07-29T00:55:33;4.57;;;2.58;;
29002;SDS011;16102;57.138;-2.118;2022-07-29T00:58:04;6.63;;;2.95;;
29002;SDS011;16102;57.138;-2.118;2022-07-29T01:00:32;4.38;;;3.17;;
29002;SDS011;16102;57.138;-2.118;2022-07-29T01:03:00;3.17;;;2.85;;
29002;SDS011;16102;57.138;-2.118;2022-07-29T01:05:27;2.67;;;2.20;;
29002;SDS011;16102;57.138;-2.118;2022-07-29T01:08:15;3.85;;;2.45;;
29002;SDS011;16102;57.138;-2.118;2022-07-29T01:10:43;2.85;;;2.25;;
29002;SDS011;16102;57.138;-2.118;2022-07-29T01:13:13;3.90;;;2.22;;
29002;SDS011;16102;57.138;-2.118;2022-07-29T01:15:54;3.45;;;2.17;;
29002;SDS011;16102;57.138;-2.118;2022-07-29T01:18:32;4.05;;;3.20;;
29002;SDS011;16102;57.138;-2.118;2022-07-29T01:31:28;4.40;;;2.65;;
29002;SDS011;16102;57.138;-2.118;2022-07-29T01:34:31;3.42;;;2.38;;
29002;SDS011;16102;57.138;-2.118;2022-07-29T01:39:47;3.08;;;2.72;;
29002;SDS011;16102;57.138;-2.118;2022-07-29T01:42:22;4.65;;;3.00;;
29002;SDS011;16102;57.138;-2.118;2022-07-29T01:44:56;5.93;;;4.68;;
29002;SDS011;16102;57.138;-2.118;2022-07-29T01:47:29;5.15;;;3.13;;
29002;SDS011;16102;57.138;-2.118;2022-07-29T01:50:04;10.20;;;5.28;;
29002;SDS011;16102;57.138;-2.118;2022-07-29T01:52:36;3.78;;;2.67;;
29002;SDS011;16102;57.138;-2.118;2022-07-29T01:55:13;2.95;;;2.42;;
29002;SDS011;16102;57.138;-2.118;2022-07-29T01:57:43;3.85;;;1.90;;
29002;SDS011;16102;57.138;-2.118;2022-07-29T02:00:13;3.13;;;2.33;;
29002;SDS011;16102;57.138;-2.118;2022-07-29T02:02:42;9.23;;;3.72;;
29002;SDS011;16102;57.138;-2.118;2022-07-29T02:05:12;4.53;;;3.05;;
29002;SDS011;16102;57.138;-2.118;2022-07-29T02:07:43;4.57;;;2.63;;
29002;SDS011;16102;57.138;-2.118;2022-07-29T02:10:12;2.80;;;2.13;;
29002;SDS011;16102;57.138;-2.118;2022-07-29T02:12:41;4.22;;;2.67;;
29002;SDS011;16102;57.138;-2.118;2022-07-29T02:15:16;4.55;;;2.20;;
29002;SDS011;16102;57.138;-2.118;2022-07-29T02:17:51;5.45;;;2.00;;
29002;SDS011;16102;57.138;-2.118;2022-07-29T02:20:22;3.05;;;2.00;;
29002;SDS011;16102;57.138;-2.118;2022-07-29T02:22:52;2.35;;;2.00;;
29002;SDS011;16102;57.138;-2.118;2022-07-29T02:25:21;7.05;;;2.60;;
29002;SDS011;16102;57.138;-2.118;2022-07-29T02:27:50;3.45;;;2.00;;
29002;SDS011;16102;57.138;-2.118;2022-07-29T02:30:18;7.15;;;2.80;;
29002;SDS011;16102;57.138;-2.118;2022-07-29T02:32:48;2.78;;;1.92;;
29002;SDS011;16102;57.138;-2.118;2022-07-29T02:35:17;3.55;;;2.33;;
29002;SDS011;16102;57.138;-2.118;2022-07-29T02:37:45;6.47;;;3.63;;
29002;SDS011;16102;57.138;-2.118;2022-07-29T02:40:37;3.83;;;2.55;;
29002;SDS011;16102;57.138;-2.118;2022-07-29T02:43:06;2.33;;;2.10;;
29002;SDS011;16102;57.138;-2.118;2022-07-29T02:45:35;3.17;;;2.22;;
29002;SDS011;16102;57.138;-2.118;2022-07-29T02:48:05;5.90;;;2.00;;
29002;SDS011;16102;57.138;-2.118;2022-07-29T02:50:38;2.10;;;1.63;;
29002;SDS011;16102;57.138;-2.118;2022-07-29T02:53:16;4.78;;;3.00;;
29002;SDS011;16102;57.138;-2.118;2022-07-29T02:55:48;5.03;;;4.43;;
29002;SDS011;16102;57.138;-2.118;2022-07-29T03:00:58;4.00;;;2.53;;
29002;SDS011;16102;57.138;-2.118;2022-07-29T03:03:33;4.40;;;2.05;;
29002;SDS011;16102;57.138;-2.118;2022-07-29T03:06:03;2.72;;;1.85;;
29002;SDS011;16102;57.138;-2.118;2022-07-29T03:08:31;7.07;;;2.70;;
29002;SDS011;16102;57.138;-2.118;2022-07-29T03:11:00;3.58;;;2.28;;
29002;SDS011;16102;57.138;-2.118;2022-07-29T03:13:29;1.63;;;1.52;;
29002;SDS011;16102;57.138;-2.118;2022-07-29T03:15:57;2.35;;;2.05;;
29002;SDS011;16102;57.138;-2.118;2022-07-29T03:18:25;4.90;;;3.30;;
29002;SDS011;16102;57.138;-2.118;2022-07-29T03:20:53;2.15;;;2.03;;
29002;SDS011;16102;57.138;-2.118;2022-07-29T03:23:21;3.03;;;1.92;;
29002;SDS011;16102;57.138;-2.118;2022-07-29T03:25:50;2.95;;;1.98;;
29002;SDS011;16102;57.138;-2.118;2022-07-29T03:28:17;4.07;;;1.70;;
29002;SDS011;16102;57.138;-2.118;2022-07-29T03:30:44;2.17;;;1.77;;
29002;SDS011;16102;57.138;-2.118;2022-07-29T03:33:11;3.38;;;1.50;;
29002;SDS011;16102;57.138;-2.118;2022-07-29T03:35:39;1.70;;;1.60;;
29002;SDS011;16102;57.138;-2.118;2022-07-29T03:38:06;2.50;;;2.15;;
29002;SDS011;16102;57.138;-2.118;2022-07-29T03:40:48;2.47;;;1.60;;
29002;SDS011;16102;57.138;-2.118;2022-07-29T03:43:19;3.63;;;1.50;;
29002;SDS011;16102;57.138;-2.118;2022-07-29T03:45:49;4.15;;;2.00;;
29002;SDS011;16102;57.138;-2.118;2022-07-29T03:48:19;3.03;;;1.42;;
29002;SDS011;16102;57.138;-2.118;2022-07-29T03:50:50;2.72;;;2.05;;
29002;SDS011;16102;57.138;-2.118;2022-07-29T03:53:17;4.28;;;2.00;;
29002;SDS011;16102;57.138;-2.118;2022-07-29T03:55:45;9.10;;;5.03;;
29002;SDS011;16102;57.138;-2.118;2022-07-29T03:58:16;6.25;;;3.05;;
29002;SDS011;16102;57.138;-2.118;2022-07-29T04:00:45;4.88;;;3.58;;
29002;SDS011;16102;57.138;-2.118;2022-07-29T04:03:14;6.90;;;3.13;;
29002;SDS011;16102;57.138;-2.118;2022-07-29T04:05:42;3.33;;;2.58;;
29002;SDS011;16102;57.138;-2.118;2022-07-29T04:08:09;3.60;;;2.95;;
29002;SDS011;16102;57.138;-2.118;2022-07-29T04:10:37;6.45;;;4.35;;
29002;SDS011;16102;57.138;-2.118;2022-07-29T04:13:04;6.78;;;3.13;;
29002;SDS011;16102;57.138;-2.118;2022-07-29T04:15:31;3.65;;;2.88;;
29002;SDS011;16102;57.138;-2.118;2022-07-29T04:17:58;4.72;;;3.00;;
29002;SDS011;16102;57.138;-2.118;2022-07-29T04:20:25;5.05;;;3.33;;
29002;SDS011;16102;57.138;-2.118;2022-07-29T04:22:53;3.83;;;2.78;;
29002;SDS011;16102;57.138;-2.118;2022-07-29T04:25:20;6.45;;;4.28;;
29002;SDS011;16102;57.138;-2.118;2022-07-29T04:27:47;6.57;;;3.13;;
29002;SDS011;16102;57.138;-2.118;2022-07-29T04:30:29;2.40;;;2.20;;
29002;SDS011;16102;57.138;-2.118;2022-07-29T04:32:57;3.17;;;2.40;;
29002;SDS011;16102;57.138;-2.118;2022-07-29T04:35:25;4.28;;;2.42;;
29002;SDS011;16102;57.138;-2.118;2022-07-29T04:37:51;5.45;;;2.88;;
29002;SDS011;16102;57.138;-2.118;2022-07-29T04:40:19;6.50;;;3.58;;
29002;SDS011;16102;57.138;-2.118;2022-07-29T04:42:46;4.13;;;3.17;;
29002;SDS011;16102;57.138;-2.118;2022-07-29T04:45:14;6.85;;;3.58;;
29002;SDS011;16102;57.138;-2.118;2022-07-29T04:47:47;6.13;;;3.70;;
29002;SDS011;16102;57.138;-2.118;2022-07-29T04:50:15;4.55;;;3.22;;
29002;SDS011;16102;57.138;-2.118;2022-07-29T04:52:42;4.47;;;2.70;;
29002;SDS011;16102;57.138;-2.118;2022-07-29T04:55:09;4.78;;;3.22;;
29002;SDS011;16102;57.138;-2.118;2022-07-29T04:57:36;3.83;;;3.03;;
29002;SDS011;16102;57.138;-2.118;2022-07-29T05:00:04;3.08;;;2.88;;
29002;SDS011;16102;57.138;-2.118;2022-07-29T05:02:32;4.40;;;3.15;;
29002;SDS011;16102;57.138;-2.118;2022-07-29T05:04:59;4.20;;;3.28;;
29002;SDS011;16102;57.138;-2.118;2022-07-29T05:07:26;3.65;;;3.15;;
29002;SDS011;16102;57.138;-2.118;2022-07-29T05:09:53;9.85;;;5.85;;
29002;SDS011;16102;57.138;-2.118;2022-07-29T05:12:23;6.90;;;3.70;;
29002;SDS011;16102;57.138;-2.118;2022-07-29T05:14:51;3.30;;;3.00;;
29002;SDS011;16102;57.138;-2.118;2022-07-29T05:17:18;3.85;;;3.13;;
29002;SDS011;16102;57.138;-2.118;2022-07-29T05:19:45;6.25;;;3.55;;
29002;SDS011;16102;57.138;-2.118;2022-07-29T05:22:12;7.25;;;3.20;;
29002;SDS011;16102;57.138;-2.118;2022-07-29T05:24:39;6.32;;;2.67;;
29002;SDS011;16102;57.138;-2.118;2022-07-29T05:27:07;6.60;;;2.33;;
29002;SDS011;16102;57.138;-2.118;2022-07-29T05:29:35;7.18;;;3.38;;
29002;SDS011;16102;57.138;-2.118;2022-07-29T05:32:10;6.13;;;3.17;;
29002;SDS011;16102;57.138;-2.118;2022-07-29T05:34:38;6.05;;;2.95;;
29002;SDS011;16102;57.138;-2.118;2022-07-29T05:37:16;3.45;;;2.35;;
29002;SDS011;16102;57.138;-2.118;2022-07-29T05:39:44;2.92;;;1.90;;
29002;SDS011;16102;57.138;-2.118;2022-07-29T05:42:15;4.55;;;1.92;;
29002;SDS011;16102;57.138;-2.118;2022-07-29T05:44:42;8.35;;;2.53;;
29002;SDS011;16102;57.138;-2.118;2022-07-29T05:47:09;3.67;;;1.90;;
29002;SDS011;16102;57.138;-2.118;2022-07-29T05:49:37;6.47;;;2.42;;
29002;SDS011;16102;57.138;-2.118;2022-07-29T05:52:04;5.43;;;2.42;;
29002;SDS011;16102;57.138;-2.118;2022-07-29T05:54:31;6.78;;;1.98;;
29002;SDS011;16102;57.138;-2.118;2022-07-29T05:56:58;3.42;;;1.60;;
29002;SDS011;16102;57.138;-2.118;2022-07-29T05:59:25;3.47;;;1.75;;
29002;SDS011;16102;57.138;-2.118;2022-07-29T06:01:55;4.40;;;1.67;;
29002;SDS011;16102;57.138;-2.118;2022-07-29T06:04:23;2.72;;;1.42;;
29002;SDS011;16102;57.138;-2.118;2022-07-29T06:06:50;5.32;;;1.77;;
29002;SDS011;16102;57.138;-2.118;2022-07-29T06:09:18;2.40;;;1.40;;
29002;SDS011;16102;57.138;-2.118;2022-07-29T06:11:45;2.30;;;0.98;;
29002;SDS011;16102;57.138;-2.118;2022-07-29T06:14:12;7.05;;;1.25;;
29002;SDS011;16102;57.138;-2.118;2022-07-29T06:16:40;4.22;;;1.02;;
29002;SDS011;16102;57.138;-2.118;2022-07-29T06:19:07;2.67;;;0.88;;
29002;SDS011;16102;57.138;-2.118;2022-07-29T06:21:34;5.18;;;1.60;;
29002;SDS011;16102;57.138;-2.118;2022-07-29T06:24:07;5.43;;;1.67;;
29002;SDS011;16102;57.138;-2.118;2022-07-29T06:26:34;3.85;;;0.95;;
29002;SDS011;16102;57.138;-2.118;2022-07-29T06:29:05;3.50;;;0.77;;
29002;SDS011;16102;57.138;-2.118;2022-07-29T06:31:33;4.70;;;1.50;;
29002;SDS011;16102;57.138;-2.118;2022-07-29T06:34:00;2.10;;;0.98;;
29002;SDS011;16102;57.138;-2.118;2022-07-29T06:36:37;6.43;;;1.55;;
29002;SDS011;16102;57.138;-2.118;2022-07-29T06:39:06;8.32;;;2.13;;
29002;SDS011;16102;57.138;-2.118;2022-07-29T06:41:37;8.25;;;2.00;;
29002;SDS011;16102;57.138;-2.118;2022-07-29T06:44:04;3.72;;;1.10;;
29002;SDS011;16102;57.138;-2.118;2022-07-29T06:46:31;3.63;;;1.08;;
29002;SDS011;16102;57.138;-2.118;2022-07-29T06:48:59;8.60;;;1.73;;
29002;SDS011;16102;57.138;-2.118;2022-07-29T06:51:28;9.82;;;2.33;;
29002;SDS011;16102;57.138;-2.118;2022-07-29T06:53:55;5.47;;;1.38;;
29002;SDS011;16102;57.138;-2.118;2022-07-29T06:56:38;5.55;;;1.88;;
29002;SDS011;16102;57.138;-2.118;2022-07-29T06:59:08;7.63;;;1.35;;
29002;SDS011;16102;57.138;-2.118;2022-07-29T07:01:37;5.05;;;1.48;;
29002;SDS011;16102;57.138;-2.118;2022-07-29T07:04:05;4.85;;;1.10;;
29002;SDS011;16102;57.138;-2.118;2022-07-29T07:06:35;2.90;;;1.27;;
29002;SDS011;16102;57.138;-2.118;2022-07-29T07:09:03;3.83;;;1.10;;
29002;SDS011;16102;57.138;-2.118;2022-07-29T07:11:30;4.20;;;1.23;;
29002;SDS011;16102;57.138;-2.118;2022-07-29T07:13:57;6.40;;;1.98;;
29002;SDS011;16102;57.138;-2.118;2022-07-29T07:16:29;11.57;;;2.03;;
29002;SDS011;16102;57.138;-2.118;2022-07-29T07:18:57;8.02;;;1.77;;
29002;SDS011;16102;57.138;-2.118;2022-07-29T07:21:24;9.90;;;2.20;;
29002;SDS011;16102;57.138;-2.118;2022-07-29T07:23:51;4.00;;;0.98;;
29002;SDS011;16102;57.138;-2.118;2022-07-29T07:26:18;4.82;;;0.90;;
29002;SDS011;16102;57.138;-2.118;2022-07-29T07:28:45;7.85;;;1.98;;
29002;SDS011;16102;57.138;-2.118;2022-07-29T07:31:11;7.75;;;1.85;;
29002;SDS011;16102;57.138;-2.118;2022-07-29T07:33:38;3.45;;;1.10;;
29002;SDS011;16102;57.138;-2.118;2022-07-29T07:36:06;2.25;;;1.00;;
29002;SDS011;16102;57.138;-2.118;2022-07-29T07:38:32;4.32;;;2.55;;
29002;SDS011;16102;57.138;-2.118;2022-07-29T07:41:00;2.75;;;1.10;;
29002;SDS011;16102;57.138;-2.118;2022-07-29T07:43:27;6.50;;;1.02;;
29002;SDS011;16102;57.138;-2.118;2022-07-29T07:45:54;4.03;;;1.42;;
29002;SDS011;16102;57.138;-2.118;2022-07-29T07:48:21;5.70;;;1.80;;
29002;SDS011;16102;57.138;-2.118;2022-07-29T07:50:48;4.28;;;2.05;;
29002;SDS011;16102;57.138;-2.118;2022-07-29T07:53:17;3.30;;;1.30;;
29002;SDS011;16102;57.138;-2.118;2022-07-29T07:55:44;3.95;;;1.15;;
29002;SDS011;16102;57.138;-2.118;2022-07-29T07:58:31;4.88;;;1.10;;
29002;SDS011;16102;57.138;-2.118;2022-07-29T08:00:58;1.90;;;1.25;;
29002;SDS011;16102;57.138;-2.118;2022-07-29T08:03:26;4.18;;;1.20;;
29002;SDS011;16102;57.138;-2.118;2022-07-29T08:05:52;8.15;;;1.98;;
29002;SDS011;16102;57.138;-2.118;2022-07-29T08:08:20;4.28;;;1.48;;
29002;SDS011;16102;57.138;-2.118;2022-07-29T08:10:48;9.60;;;1.75;;
29002;SDS011;16102;57.138;-2.118;2022-07-29T08:13:28;3.72;;;0.90;;
29002;SDS011;16102;57.138;-2.118;2022-07-29T08:15:56;8.48;;;1.65;;
29002;SDS011;16102;57.138;-2.118;2022-07-29T08:18:30;7.38;;;2.17;;
29002;SDS011;16102;57.138;-2.118;2022-07-29T08:20:57;5.28;;;1.42;;
29002;SDS011;16102;57.138;-2.118;2022-07-29T08:23:25;2.67;;;1.63;;
29002;SDS011;16102;57.138;-2.118;2022-07-29T08:26:13;3.30;;;1.05;;
29002;SDS011;16102;57.138;-2.118;2022-07-29T08:28:42;2.28;;;0.90;;
29002;SDS011;16102;57.138;-2.118;2022-07-29T08:31:16;1.17;;;0.77;;
29002;SDS011;16102;57.138;-2.118;2022-07-29T08:33:44;3.20;;;0.70;;
29002;SDS011;16102;57.138;-2.118;2022-07-29T08:36:11;3.22;;;0.98;;
29002;SDS011;16102;57.138;-2.118;2022-07-29T08:38:39;4.93;;;1.23;;
29002;SDS011;16102;57.138;-2.118;2022-07-29T08:41:06;1.20;;;0.80;;
29002;SDS011;16102;57.138;-2.118;2022-07-29T08:43:33;2.72;;;1.40;;
29002;SDS011;16102;57.138;-2.118;2022-07-29T08:46:03;3.92;;;1.05;;
29002;SDS011;16102;57.138;-2.118;2022-07-29T08:48:30;5.20;;;0.70;;
29002;SDS011;16102;57.138;-2.118;2022-07-29T08:50:58;12.43;;;2.67;;
29002;SDS011;16102;57.138;-2.118;2022-07-29T08:53:27;3.83;;;0.93;;
29002;SDS011;16102;57.138;-2.118;2022-07-29T08:55:55;2.30;;;0.85;;
29002;SDS011;16102;57.138;-2.118;2022-07-29T08:58:23;5.00;;;1.30;;
29002;SDS011;16102;57.138;-2.118;2022-07-29T09:00:52;8.50;;;1.35;;
29002;SDS011;16102;57.138;-2.118;2022-07-29T09:03:24;2.28;;;1.13;;
29002;SDS011;16102;57.138;-2.118;2022-07-29T09:05:52;6.90;;;1.63;;
29002;SDS011;16102;57.138;-2.118;2022-07-29T09:08:20;1.80;;;0.80;;
29002;SDS011;16102;57.138;-2.118;2022-07-29T09:10:49;7.20;;;0.95;;
29002;SDS011;16102;57.138;-2.118;2022-07-29T09:13:17;4.65;;;1.25;;
29002;SDS011;16102;57.138;-2.118;2022-07-29T09:15:44;7.15;;;1.45;;
29002;SDS011;16102;57.138;-2.118;2022-07-29T09:18:11;7.05;;;1.40;;
29002;SDS011;16102;57.138;-2.118;2022-07-29T09:20:55;3.83;;;1.23;;
29002;SDS011;16102;57.138;-2.118;2022-07-29T09:23:56;3.70;;;1.13;;
29002;SDS011;16102;57.138;-2.118;2022-07-29T09:26:30;6.35;;;1.60;;
29002;SDS011;16102;57.138;-2.118;2022-07-29T09:28:58;2.78;;;0.80;;
29002;SDS011;16102;57.138;-2.118;2022-07-29T09:31:31;6.43;;;1.98;;
29002;SDS011;16102;57.138;-2.118;2022-07-29T09:34:03;3.42;;;1.10;;
29002;SDS011;16102;57.138;-2.118;2022-07-29T09:36:38;7.65;;;1.20;;
29002;SDS011;16102;57.138;-2.118;2022-07-29T09:39:13;4.50;;;1.38;;
29002;SDS011;16102;57.138;-2.118;2022-07-29T09:44:14;5.50;;;1.60;;
29002;SDS011;16102;57.138;-2.118;2022-07-29T09:49:32;3.75;;;0.90;;
29002;SDS011;16102;57.138;-2.118;2022-07-29T09:54:30;3.75;;;1.33;;
29002;SDS011;16102;57.138;-2.118;2022-07-29T09:57:07;4.32;;;1.88;;
29002;SDS011;16102;57.138;-2.118;2022-07-29T09:59:38;5.78;;;1.30;;
29002;SDS011;16102;57.138;-2.118;2022-07-29T10:02:15;3.25;;;1.67;;
29002;SDS011;16102;57.138;-2.118;2022-07-29T10:04:49;3.03;;;1.35;;
29002;SDS011;16102;57.138;-2.118;2022-07-29T10:07:16;5.90;;;1.80;;
29002;SDS011;16102;57.138;-2.118;2022-07-29T10:09:56;5.35;;;1.90;;
29002;SDS011;16102;57.138;-2.118;2022-07-29T10:12:23;2.30;;;1.38;;
29002;SDS011;16102;57.138;-2.118;2022-07-29T10:14:51;6.10;;;1.10;;
29002;SDS011;16102;57.138;-2.118;2022-07-29T10:17:19;3.88;;;1.10;;
29002;SDS011;16102;57.138;-2.118;2022-07-29T10:19:47;4.25;;;1.50;;
29002;SDS011;16102;57.138;-2.118;2022-07-29T10:22:15;2.72;;;1.10;;
29002;SDS011;16102;57.138;-2.118;2022-07-29T10:25:02;4.53;;;1.00;;
29002;SDS011;16102;57.138;-2.118;2022-07-29T10:27:31;4.10;;;1.30;;
29002;SDS011;16102;57.138;-2.118;2022-07-29T10:29:58;1.98;;;1.15;;
29002;SDS011;16102;57.138;-2.118;2022-07-29T10:32:34;4.63;;;1.40;;
29002;SDS011;16102;57.138;-2.118;2022-07-29T10:44:21;5.70;;;1.05;;
29002;SDS011;16102;57.138;-2.118;2022-07-29T10:46:50;4.53;;;1.38;;
29002;SDS011;16102;57.138;-2.118;2022-07-29T10:49:20;2.15;;;1.05;;
29002;SDS011;16102;57.138;-2.118;2022-07-29T10:51:52;5.60;;;1.38;;
29002;SDS011;16102;57.138;-2.118;2022-07-29T10:54:36;2.83;;;1.50;;
29002;SDS011;16102;57.138;-2.118;2022-07-29T10:57:22;7.63;;;1.08;;
29002;SDS011;16102;57.138;-2.118;2022-07-29T11:00:27;2.50;;;0.85;;
29002;SDS011;16102;57.138;-2.118;2022-07-29T11:02:55;4.88;;;1.60;;
29002;SDS011;16102;57.138;-2.118;2022-07-29T11:05:24;4.60;;;1.50;;
29002;SDS011;16102;57.138;-2.118;2022-07-29T11:10:52;3.13;;;1.20;;
29002;SDS011;16102;57.138;-2.118;2022-07-29T11:16:14;4.50;;;1.17;;
29002;SDS011;16102;57.138;-2.118;2022-07-29T11:21:46;4.20;;;1.00;;
29002;SDS011;16102;57.138;-2.118;2022-07-29T11:27:07;8.75;;;1.52;;
29002;SDS011;16102;57.138;-2.118;2022-07-29T11:29:51;7.00;;;2.43;;
29002;SDS011;16102;57.138;-2.118;2022-07-29T11:32:24;4.18;;;1.48;;
29002;SDS011;16102;57.138;-2.118;2022-07-29T11:43:57;1.92;;;0.95;;
29002;SDS011;16102;57.138;-2.118;2022-07-29T11:46:48;2.03;;;1.00;;
29002;SDS011;16102;57.138;-2.118;2022-07-29T11:49:23;6.15;;;1.77;;
29002;SDS011;16102;57.138;-2.118;2022-07-29T11:51:58;4.70;;;1.02;;
29002;SDS011;16102;57.138;-2.118;2022-07-29T11:54:33;7.07;;;1.75;;
29002;SDS011;16102;57.138;-2.118;2022-07-29T11:57:21;3.08;;;1.25;;
29002;SDS011;16102;57.138;-2.118;2022-07-29T12:00:08;7.40;;;1.58;;
29002;SDS011;16102;57.138;-2.118;2022-07-29T12:02:41;5.05;;;1.73;;
29002;SDS011;16102;57.138;-2.118;2022-07-29T12:05:14;7.30;;;1.50;;
29002;SDS011;16102;57.138;-2.118;2022-07-29T12:08:17;5.38;;;1.25;;
29002;SDS011;16102;57.138;-2.118;2022-07-29T12:10:48;3.38;;;1.77;;
29002;SDS011;16102;57.138;-2.118;2022-07-29T12:13:18;1.70;;;0.80;;
29002;SDS011;16102;57.138;-2.118;2022-07-29T12:15:53;3.72;;;0.95;;
29002;SDS011;16102;57.138;-2.118;2022-07-29T12:18:25;3.00;;;0.90;;
29002;SDS011;16102;57.138;-2.118;2022-07-29T12:20:56;3.53;;;1.10;;
29002;SDS011;16102;57.138;-2.118;2022-07-29T12:23:28;2.15;;;1.10;;
29002;SDS011;16102;57.138;-2.118;2022-07-29T12:26:03;3.95;;;0.95;;
29002;SDS011;16102;57.138;-2.118;2022-07-29T12:28:37;7.80;;;1.73;;
29002;SDS011;16102;57.138;-2.118;2022-07-29T12:31:05;7.10;;;2.00;;
29002;SDS011;16102;57.138;-2.118;2022-07-29T12:33:33;6.22;;;1.48;;
29002;SDS011;16102;57.138;-2.118;2022-07-29T12:36:01;2.70;;;0.88;;
29002;SDS011;16102;57.138;-2.118;2022-07-29T12:38:37;6.00;;;1.70;;
29002;SDS011;16102;57.138;-2.118;2022-07-29T12:41:07;3.47;;;1.50;;
29002;SDS011;16102;57.138;-2.118;2022-07-29T12:43:34;2.97;;;1.25;;
29002;SDS011;16102;57.138;-2.118;2022-07-29T12:46:11;2.80;;;1.40;;
29002;SDS011;16102;57.138;-2.118;2022-07-29T12:48:42;2.58;;;1.30;;
29002;SDS011;16102;57.138;-2.118;2022-07-29T12:51:10;3.75;;;1.50;;
29002;SDS011;16102;57.138;-2.118;2022-07-29T12:53:40;3.42;;;1.52;;
29002;SDS011;16102;57.138;-2.118;2022-07-29T12:56:14;7.22;;;1.35;;
29002;SDS011;16102;57.138;-2.118;2022-07-29T13:01:43;5.22;;;1.80;;
29002;SDS011;16102;57.138;-2.118;2022-07-29T13:04:11;2.72;;;0.98;;
29002;SDS011;16102;57.138;-2.118;2022-07-29T13:07:06;3.35;;;1.30;;
29002;SDS011;16102;57.138;-2.118;2022-07-29T13:09:38;2.95;;;1.20;;
29002;SDS011;16102;57.138;-2.118;2022-07-29T13:12:08;5.68;;;1.92;;
29002;SDS011;16102;57.138;-2.118;2022-07-29T13:14:46;4.95;;;2.55;;
29002;SDS011;16102;57.138;-2.118;2022-07-29T13:17:24;6.88;;;1.92;;
29002;SDS011;16102;57.138;-2.118;2022-07-29T13:20:08;7.07;;;1.77;;
29002;SDS011;16102;57.138;-2.118;2022-07-29T13:22:39;3.10;;;1.10;;
29002;SDS011;16102;57.138;-2.118;2022-07-29T13:25:09;6.78;;;1.73;;
29002;SDS011;16102;57.138;-2.118;2022-07-29T13:27:38;7.68;;;1.70;;
29002;SDS011;16102;57.138;-2.118;2022-07-29T13:30:08;6.10;;;1.85;;
29002;SDS011;16102;57.138;-2.118;2022-07-29T13:32:37;4.53;;;1.48;;
29002;SDS011;16102;57.138;-2.118;2022-07-29T13:35:05;7.75;;;1.75;;
29002;SDS011;16102;57.138;-2.118;2022-07-29T13:37:34;2.90;;;1.20;;
29002;SDS011;16102;57.138;-2.118;2022-07-29T13:40:05;5.47;;;1.23;;
29002;SDS011;16102;57.138;-2.118;2022-07-29T13:42:34;6.53;;;1.98;;
29002;SDS011;16102;57.138;-2.118;2022-07-29T13:45:01;5.70;;;1.33;;
29002;SDS011;16102;57.138;-2.118;2022-07-29T13:47:29;5.55;;;1.52;;
29002;SDS011;16102;57.138;-2.118;2022-07-29T13:49:58;3.50;;;1.38;;
29002;SDS011;16102;57.138;-2.118;2022-07-29T13:52:26;5.65;;;1.98;;
29002;SDS011;16102;57.138;-2.118;2022-07-29T13:54:53;5.70;;;1.13;;
29002;SDS011;16102;57.138;-2.118;2022-07-29T13:57:20;6.57;;;1.52;;
29002;SDS011;16102;57.138;-2.118;2022-07-29T13:59:47;6.45;;;1.80;;
29002;SDS011;16102;57.138;-2.118;2022-07-29T14:02:19;13.85;;;2.22;;
29002;SDS011;16102;57.138;-2.118;2022-07-29T14:04:52;6.15;;;1.42;;
29002;SDS011;16102;57.138;-2.118;2022-07-29T14:07:20;5.47;;;1.23;;
29002;SDS011;16102;57.138;-2.118;2022-07-29T14:09:47;6.30;;;2.17;;
29002;SDS011;16102;57.138;-2.118;2022-07-29T14:12:14;2.72;;;1.33;;
29002;SDS011;16102;57.138;-2.118;2022-07-29T14:14:41;6.50;;;1.80;;
29002;SDS011;16102;57.138;-2.118;2022-07-29T14:17:12;8.43;;;2.40;;
29002;SDS011;16102;57.138;-2.118;2022-07-29T14:19:39;4.05;;;1.50;;
29002;SDS011;16102;57.138;-2.118;2022-07-29T14:22:07;2.55;;;1.30;;
29002;SDS011;16102;57.138;-2.118;2022-07-29T14:24:36;7.43;;;2.60;;
29002;SDS011;16102;57.138;-2.118;2022-07-29T14:27:05;9.90;;;2.10;;
29002;SDS011;16102;57.138;-2.118;2022-07-29T14:29:33;4.18;;;1.13;;
29002;SDS011;16102;57.138;-2.118;2022-07-29T14:32:06;9.18;;;1.90;;
29002;SDS011;16102;57.138;-2.118;2022-07-29T14:34:36;4.60;;;1.92;;
29002;SDS011;16102;57.138;-2.118;2022-07-29T14:37:03;9.70;;;2.05;;
29002;SDS011;16102;57.138;-2.118;2022-07-29T14:39:32;6.15;;;1.95;;
29002;SDS011;16102;57.138;-2.118;2022-07-29T14:42:08;7.38;;;1.77;;
29002;SDS011;16102;57.138;-2.118;2022-07-29T14:44:38;5.78;;;1.48;;
29002;SDS011;16102;57.138;-2.118;2022-07-29T14:47:06;7.60;;;2.05;;
29002;SDS011;16102;57.138;-2.118;2022-07-29T14:49:34;5.97;;;1.50;;
29002;SDS011;16102;57.138;-2.118;2022-07-29T14:52:02;4.95;;;1.60;;
29002;SDS011;16102;57.138;-2.118;2022-07-29T14:54:29;4.10;;;1.40;;
29002;SDS011;16102;57.138;-2.118;2022-07-29T14:56:56;6.80;;;2.17;;
29002;SDS011;16102;57.138;-2.118;2022-07-29T14:59:24;6.93;;;1.80;;
29002;SDS011;16102;57.138;-2.118;2022-07-29T15:01:52;7.60;;;1.60;;
29002;SDS011;16102;57.138;-2.118;2022-07-29T15:04:19;4.70;;;1.85;;
29002;SDS011;16102;57.138;-2.118;2022-07-29T15:06:47;7.88;;;1.65;;
29002;SDS011;16102;57.138;-2.118;2022-07-29T15:09:14;8.63;;;2.10;;
29002;SDS011;16102;57.138;-2.118;2022-07-29T15:11:41;5.60;;;2.13;;
29002;SDS011;16102;57.138;-2.118;2022-07-29T15:14:08;9.77;;;1.35;;
29002;SDS011;16102;57.138;-2.118;2022-07-29T15:16:36;5.15;;;1.73;;
29002;SDS011;16102;57.138;-2.118;2022-07-29T15:19:07;4.55;;;1.60;;
29002;SDS011;16102;57.138;-2.118;2022-07-29T15:21:34;4.65;;;1.60;;
29002;SDS011;16102;57.138;-2.118;2022-07-29T15:24:13;7.68;;;2.20;;
29002;SDS011;16102;57.138;-2.118;2022-07-29T15:26:40;6.13;;;1.52;;
29002;SDS011;16102;57.138;-2.118;2022-07-29T15:29:08;7.28;;;1.58;;
29002;SDS011;16102;57.138;-2.118;2022-07-29T15:31:36;6.43;;;1.95;;
29002;SDS011;16102;57.138;-2.118;2022-07-29T15:34:03;6.72;;;2.55;;
29002;SDS011;16102;57.138;-2.118;2022-07-29T15:36:31;6.07;;;1.83;;
29002;SDS011;16102;57.138;-2.118;2022-07-29T15:39:19;4.32;;;1.80;;
29002;SDS011;16102;57.138;-2.118;2022-07-29T15:41:47;5.68;;;1.27;;
29002;SDS011;16102;57.138;-2.118;2022-07-29T15:44:15;2.58;;;1.00;;
29002;SDS011;16102;57.138;-2.118;2022-07-29T15:46:42;4.60;;;1.70;;
29002;SDS011;16102;57.138;-2.118;2022-07-29T15:49:28;5.47;;;1.60;;